Time;durP1;ratioP1;P1;durP2;ratioP2;P2;SDS_P1;SDS_P2;PMS_P1;PMS_P2;Temp;Humidity;BMP_temperature;BMP_pressure;BME280_temperature;BME280_humidity;BME280_pressure;Samples;Min_cycle;Max_cycle;Signal;HPM_P1;HPM_P2
2023/01/09 00:00:27;;;;;;;364.83;154.27;;;4.50;99.90;;;;;;5054670;28;20386;-73
2023/01/09 00:02:53;;;;;;;361.20;152.10;;;4.60;99.90;;;;;;5054597;28;20056;-73
2023/01/09 00:05:19;;;;;;;322.70;138.60;;;4.50;99.90;;;;;;5070001;28;20024;-73
2023/01/09 00:07:45;;;;;;;328.33;141.25;;;4.50;99.90;;;;;;5068370;28;20123;-73
2023/01/09 00:10:14;;;;;;;314.98;138.10;;;4.40;99.90;;;;;;5074306;28;20031;-73
2023/01/09 00:12:40;;;;;;;309.48;132.55;;;4.40;99.90;;;;;;5073359;28;20028;-73
2023/01/09 00:15:06;;;;;;;307.00;136.30;;;4.40;99.90;;;;;;5074582;28;20024;-73
2023/01/09 00:17:32;;;;;;;341.35;145.88;;;4.40;99.90;;;;;;5074147;28;20063;-73
2023/01/09 00:19:58;;;;;;;324.58;140.45;;;4.40;99.90;;;;;;5057195;28;20037;-73
2023/01/09 00:22:24;;;;;;;320.13;141.00;;;4.50;99.90;;;;;;5054392;28;20040;-73
2023/01/09 00:24:50;;;;;;;326.33;144.18;;;4.50;99.90;;;;;;5054262;28;20032;-73
2023/01/09 00:27:16;;;;;;;329.83;140.30;;;4.50;99.90;;;;;;5054513;28;20036;-73
2023/01/09 00:29:44;;;;;;;340.45;144.55;;;4.50;99.90;;;;;;5054009;28;20064;-73
2023/01/09 00:32:11;;;;;;;363.55;149.60;;;4.50;99.90;;;;;;5073626;28;20025;-73
2023/01/09 00:34:37;;;;;;;319.17;138.55;;;4.50;99.90;;;;;;5074299;28;20045;-73
2023/01/09 00:37:10;;;;;;;290.95;126.65;;;4.40;99.90;;;;;;5074173;28;20100;-73
2023/01/09 00:39:40;;;;;;;274.45;119.80;;;4.50;99.90;;;;;;5072913;28;20058;-73
2023/01/09 00:42:10;;;;;;;268.90;122.57;;;4.50;99.90;;;;;;5074352;28;20531;-73
2023/01/09 00:44:41;;;;;;;335.88;138.55;;;4.50;99.90;;;;;;5072943;28;20093;-73
2023/01/09 00:47:13;;;;;;;384.17;156.00;;;4.50;99.90;;;;;;5074334;28;20105;-73
2023/01/09 00:49:41;;;;;;;351.55;148.45;;;4.50;99.90;;;;;;5073994;28;20038;-73
2023/01/09 00:52:10;;;;;;;337.05;143.25;;;4.50;99.90;;;;;;5073988;28;20020;-73
2023/01/09 00:54:37;;;;;;;310.20;136.50;;;4.30;99.90;;;;;;5074075;28;20039;-73
2023/01/09 00:57:03;;;;;;;291.25;127.03;;;4.40;99.90;;;;;;5074100;28;20103;-73
2023/01/09 00:59:29;;;;;;;290.98;128.40;;;4.40;99.90;;;;;;5073816;28;20040;-73
2023/01/09 01:01:55;;;;;;;319.23;138.80;;;4.40;99.90;;;;;;5073803;28;20040;-73
2023/01/09 01:09:51;;;;;;;280.38;120.63;;;4.40;99.90;;;;;;5074022;28;20068;-73
2023/01/09 01:12:17;;;;;;;266.20;119.50;;;4.40;99.90;;;;;;5055742;28;20071;-73
2023/01/09 01:14:43;;;;;;;261.45;118.95;;;4.40;99.90;;;;;;5073850;28;20053;-73
2023/01/09 01:17:09;;;;;;;289.50;121.82;;;4.40;99.90;;;;;;5073696;28;20040;-73
2023/01/09 01:19:35;;;;;;;241.60;108.47;;;4.40;99.90;;;;;;5061266;28;20025;-73
2023/01/09 01:22:02;;;;;;;260.25;114.85;;;4.40;99.90;;;;;;5057439;28;20454;-73
2023/01/09 01:24:28;;;;;;;271.63;116.15;;;4.30;99.90;;;;;;5057382;28;20037;-73
2023/01/09 01:26:54;;;;;;;279.10;124.40;;;4.30;99.90;;;;;;5072841;28;20029;-73
2023/01/09 01:29:20;;;;;;;258.52;116.18;;;4.40;99.90;;;;;;5057607;28;20040;-73
2023/01/09 01:31:46;;;;;;;228.00;103.45;;;4.30;99.90;;;;;;5073399;28;20063;-73
2023/01/09 01:34:12;;;;;;;233.48;100.75;;;4.10;99.90;;;;;;5077275;28;20439;-73
2023/01/09 01:36:38;;;;;;;210.05;91.68;;;4.30;99.90;;;;;;5077433;28;20028;-73
2023/01/09 01:39:04;;;;;;;192.40;85.82;;;4.40;99.90;;;;;;5077025;28;20036;-73
2023/01/09 01:41:30;;;;;;;180.75;80.88;;;4.30;99.90;;;;;;5077312;28;20123;-74
2023/01/09 01:44:06;;;;;;;188.82;82.95;;;4.40;99.90;;;;;;5077270;28;20090;-73
2023/01/09 01:46:33;;;;;;;183.60;82.50;;;4.40;99.90;;;;;;5077289;28;20028;-73
2023/01/09 01:49:07;;;;;;;179.98;79.43;;;4.40;99.90;;;;;;5076880;28;20496;-73
2023/01/09 01:51:40;;;;;;;173.02;77.00;;;4.60;99.90;;;;;;5077116;28;20036;-73
2023/01/09 01:54:10;;;;;;;164.95;72.47;;;4.60;99.90;;;;;;5077095;28;20078;-73
2023/01/09 01:56:43;;;;;;;173.63;74.57;;;4.70;99.90;;;;;;5077274;28;20096;-73
2023/01/09 01:59:21;;;;;;;175.30;75.72;;;4.70;99.90;;;;;;5075515;28;20356;-73
2023/01/09 02:01:51;;;;;;;169.20;76.28;;;4.70;99.90;;;;;;5076980;28;20082;-73
2023/01/09 02:04:17;;;;;;;165.93;76.13;;;4.70;99.90;;;;;;5076766;28;20470;-73
2023/01/09 02:06:46;;;;;;;164.20;71.40;;;4.80;99.90;;;;;;5076783;28;20063;-73
2023/01/09 02:09:14;;;;;;;168.57;73.20;;;4.80;99.90;;;;;;5058650;28;20371;-73
2023/01/09 02:11:45;;;;;;;179.70;74.95;;;4.80;99.90;;;;;;5077005;28;20032;-73
2023/01/09 02:14:11;;;;;;;;;;;4.80;99.90;;;;;;5059232;28;20544;-73
2023/01/09 02:16:55;;;;;;;144.98;64.18;;;4.90;99.90;;;;;;5058728;28;20331;-73
2023/01/09 02:19:58;;;;;;;150.95;68.00;;;4.90;99.90;;;;;;5064795;28;20551;-73
2023/01/09 02:22:43;;;;;;;127.72;58.88;;;5.00;99.90;;;;;;5056586;28;20040;-73
2023/01/09 02:25:31;;;;;;;111.15;50.75;;;5.00;99.90;;;;;;5055019;28;20064;-73
2023/01/09 02:28:09;;;;;;;113.80;51.42;;;4.80;99.90;;;;;;5071466;28;20171;-73
2023/01/09 02:31:10;;;;;;;133.93;59.17;;;4.70;99.90;;;;;;5062102;28;20025;-73
2023/01/09 02:33:48;;;;;;;105.28;51.38;;;4.80;99.90;;;;;;4994610;28;20041;-73
2023/01/09 02:36:17;;;;;;;105.95;48.63;;;4.70;99.90;;;;;;5048041;28;20554;-73
2023/01/09 02:39:17;;;;;;;114.13;50.95;;;4.50;99.90;;;;;;5074870;28;20032;-73
2023/01/09 02:42:07;;;;;;;108.75;48.92;;;4.50;99.90;;;;;;5076251;28;20032;-73
2023/01/09 02:44:35;;;;;;;115.65;54.05;;;4.50;99.90;;;;;;5076180;28;20478;-73
2023/01/09 02:47:06;;;;;;;125.15;56.50;;;4.20;99.90;;;;;;5076009;28;20546;-73
2023/01/09 02:49:35;;;;;;;112.50;51.03;;;4.50;99.90;;;;;;5076013;28;20028;-73
2023/01/09 02:52:12;;;;;;;108.38;50.60;;;4.50;99.90;;;;;;5074629;28;20021;-73
2023/01/09 02:55:10;;;;;;;104.85;49.47;;;4.50;99.90;;;;;;5075987;28;20028;-73
2023/01/09 02:57:57;;;;;;;264.42;95.15;;;4.60;99.90;;;;;;5075931;28;20028;-73
2023/01/09 03:00:23;;;;;;;197.68;72.43;;;4.60;99.90;;;;;;5075689;28;20447;-73
2023/01/09 03:03:02;;;;;;;121.78;54.20;;;4.60;99.90;;;;;;5075822;28;20032;-73
2023/01/09 03:05:42;;;;;;;114.03;50.10;;;4.60;99.90;;;;;;5074501;28;20043;-73
2023/01/09 03:08:17;;;;;;;107.45;49.47;;;4.80;99.90;;;;;;5075435;28;20044;-73
2023/01/09 03:10:58;;;;;;;127.55;54.22;;;4.80;99.90;;;;;;5075711;28;20063;-73
2023/01/09 03:13:28;;;;;;;125.22;53.70;;;4.90;99.90;;;;;;5074214;28;20040;-73
2023/01/09 03:15:56;;;;;;;138.30;57.97;;;5.00;99.90;;;;;;5074262;28;20024;-73
2023/01/09 03:18:27;;;;;;;129.88;55.53;;;5.10;99.90;;;;;;5070601;28;20493;-73
2023/01/09 03:20:54;;;;;;;115.53;53.13;;;5.10;99.90;;;;;;5070788;28;20044;-73
2023/01/09 03:23:20;;;;;;;117.65;53.85;;;5.20;99.90;;;;;;5070643;28;20032;-73
2023/01/09 03:25:46;;;;;;;120.05;53.88;;;5.20;99.90;;;;;;5055483;28;20433;-73
2023/01/09 03:28:26;;;;;;;127.00;55.20;;;5.20;99.90;;;;;;5055126;28;20025;-73
2023/01/09 03:30:53;;;;;;;138.68;58.78;;;5.20;99.90;;;;;;5063723;28;20028;-73
2023/01/09 03:33:19;;;;;;;113.85;52.80;;;5.20;99.90;;;;;;5075113;28;20056;-73
2023/01/09 03:35:46;;;;;;;108.18;50.80;;;5.30;99.90;;;;;;5073818;28;20039;-73
2023/01/09 03:38:12;;;;;;;109.07;50.03;;;5.30;99.90;;;;;;5074914;28;20119;-73
2023/01/09 03:40:38;;;;;;;106.32;47.65;;;5.00;99.90;;;;;;5073791;28;20040;-73
2023/01/09 03:43:03;;;;;;;107.57;48.00;;;5.00;99.90;;;;;;5073991;28;20443;-73
2023/01/09 03:45:29;;;;;;;100.68;46.60;;;4.90;99.90;;;;;;5074905;28;20032;-73
2023/01/09 03:47:57;;;;;;;102.70;46.42;;;5.00;99.90;;;;;;5073461;28;20043;-73
2023/01/09 03:50:23;;;;;;;93.40;42.17;;;5.00;99.90;;;;;;5074710;28;20418;-73
2023/01/09 03:52:49;;;;;;;82.28;39.75;;;4.90;99.90;;;;;;5074971;28;20077;-73
2023/01/09 03:55:15;;;;;;;90.60;43.10;;;5.10;99.90;;;;;;5074794;28;20029;-73
2023/01/09 03:57:42;;;;;;;85.50;39.83;;;5.10;99.90;;;;;;5074555;28;20028;-74
2023/01/09 04:00:09;;;;;;;86.97;39.70;;;5.10;99.90;;;;;;5074650;28;20037;-73
2023/01/09 04:02:38;;;;;;;85.47;40.97;;;5.20;99.90;;;;;;5074926;28;20052;-73
2023/01/09 04:05:05;;;;;;;83.90;40.78;;;5.10;99.90;;;;;;5074634;28;20024;-73
2023/01/09 04:07:31;;;;;;;98.55;46.63;;;5.20;99.90;;;;;;5056324;28;20138;-73
2023/01/09 04:09:57;;;;;;;92.68;42.65;;;5.10;99.90;;;;;;5072962;28;20064;-73
2023/01/09 04:12:23;;;;;;;87.30;40.80;;;5.10;99.90;;;;;;5073085;28;20056;-73
2023/01/09 04:14:48;;;;;;;83.55;37.75;;;4.90;99.90;;;;;;5074720;28;20501;-73
2023/01/09 04:17:15;;;;;;;82.40;39.67;;;5.00;99.90;;;;;;5074401;28;20025;-73
2023/01/09 04:19:41;;;;;;;75.25;37.25;;;4.80;99.90;;;;;;5059794;28;20095;-73
2023/01/09 04:22:07;;;;;;;78.18;39.15;;;4.90;99.90;;;;;;5054467;28;20486;-73
2023/01/09 04:24:33;;;;;;;75.45;37.83;;;4.70;99.90;;;;;;5054221;28;20051;-73
2023/01/09 04:26:59;;;;;;;77.10;39.47;;;4.70;99.90;;;;;;5069839;28;20033;-73
2023/01/09 04:29:25;;;;;;;83.65;40.72;;;4.80;99.90;;;;;;5054168;28;20041;-73
2023/01/09 04:31:51;;;;;;;78.07;38.42;;;4.90;99.90;;;;;;5056108;28;20090;-73
2023/01/09 04:34:17;;;;;;;89.78;41.42;;;4.90;99.90;;;;;;5074206;28;20028;-73
2023/01/09 04:36:43;;;;;;;92.75;42.38;;;5.00;99.90;;;;;;5074246;28;20170;-74
2023/01/09 04:39:10;;;;;;;84.60;42.22;;;5.00;99.90;;;;;;5073902;28;20504;-73
2023/01/09 04:41:48;;;;;;;77.68;37.63;;;4.90;99.90;;;;;;5074328;28;20036;-73
2023/01/09 04:44:20;;;;;;;82.90;37.65;;;5.00;99.90;;;;;;5074260;28;20044;-73
2023/01/09 04:46:46;;;;;;;81.15;37.83;;;5.10;99.90;;;;;;5074164;28;20066;-73
2023/01/09 04:49:12;;;;;;;80.47;37.90;;;5.10;99.90;;;;;;5074151;28;20442;-73
2023/01/09 04:51:38;;;;;;;115.65;53.97;;;5.10;99.90;;;;;;5074079;28;20029;-73
2023/01/09 04:54:05;;;;;;;94.22;43.55;;;5.20;99.90;;;;;;5076204;28;20078;-73
2023/01/09 04:56:31;;;;;;;111.13;49.03;;;5.30;99.90;;;;;;5078270;28;20614;-73
2023/01/09 04:58:56;;;;;;;121.68;53.17;;;5.40;99.90;;;;;;5077949;28;20075;-73
2023/01/09 05:01:23;;;;;;;191.82;76.93;;;5.50;99.90;;;;;;5077761;28;20106;-73
2023/01/09 05:03:49;;;;;;;182.38;78.13;;;5.50;99.90;;;;;;5078033;28;20385;-73
2023/01/09 05:06:15;;;;;;;200.90;81.55;;;5.60;99.90;;;;;;5076608;28;20038;-73
2023/01/09 05:08:41;;;;;;;178.05;76.80;;;5.60;99.90;;;;;;5059523;28;20059;-73
2023/01/09 05:11:07;;;;;;;202.88;84.43;;;5.70;99.90;;;;;;5077973;28;20016;-73
2023/01/09 05:13:33;;;;;;;184.93;81.03;;;5.70;99.90;;;;;;5076601;28;20032;-73
2023/01/09 05:15:59;;;;;;;204.25;89.90;;;5.80;99.90;;;;;;5076555;28;20470;-73
2023/01/09 05:18:25;;;;;;;197.35;85.95;;;5.80;99.90;;;;;;5073364;28;20308;-74
2023/01/09 05:20:51;;;;;;;187.07;82.45;;;5.80;99.90;;;;;;5057594;28;20025;-73
2023/01/09 05:23:17;;;;;;;172.07;78.10;;;5.90;99.90;;;;;;5057904;28;20033;-73
2023/01/09 05:25:43;;;;;;;160.02;71.72;;;6.00;99.90;;;;;;5057765;28;20021;-73
2023/01/09 05:28:09;;;;;;;165.88;72.50;;;6.00;99.90;;;;;;5057662;28;20037;-73
2023/01/09 05:30:35;;;;;;;157.10;68.70;;;6.10;99.90;;;;;;5063677;28;20020;-73
2023/01/09 05:33:01;;;;;;;161.43;71.25;;;6.10;99.90;;;;;;5076260;28;20036;-73
2023/01/09 05:35:27;;;;;;;189.05;81.35;;;6.10;99.90;;;;;;5077424;28;20028;-73
2023/01/09 05:37:53;;;;;;;174.75;78.07;;;6.20;99.90;;;;;;5075977;28;20397;-73
2023/01/09 05:40:19;;;;;;;148.02;69.68;;;6.20;99.90;;;;;;5077447;28;20028;-73
2023/01/09 05:42:45;;;;;;;126.82;63.20;;;6.20;99.90;;;;;;5076982;28;20094;-73
2023/01/09 05:45:11;;;;;;;121.38;55.15;;;6.20;99.90;;;;;;5077039;28;20455;-74
2023/01/09 05:47:37;;;;;;;105.18;49.30;;;6.30;99.90;;;;;;5076103;28;20203;-74
2023/01/09 05:50:03;;;;;;;104.30;50.17;;;6.30;99.90;;;;;;5076667;28;20176;-74
2023/01/09 05:52:29;;;;;;;123.88;59.60;;;6.30;99.90;;;;;;5077088;28;20021;-74
2023/01/09 05:54:55;;;;;;;129.63;64.53;;;6.40;99.90;;;;;;5076945;28;20048;-73
2023/01/09 05:57:21;;;;;;;113.53;53.53;;;6.40;99.90;;;;;;5075678;28;20474;-73
2023/01/09 05:59:47;;;;;;;143.57;60.58;;;6.40;99.90;;;;;;5077053;28;20020;-74
2023/01/09 06:02:13;;;;;;;132.13;59.33;;;6.50;99.90;;;;;;5076898;28;20029;-73
2023/01/09 06:04:42;;;;;;;142.13;60.83;;;6.50;99.90;;;;;;5076099;28;20193;-73
2023/01/09 06:07:08;;;;;;;144.90;63.65;;;6.60;99.90;;;;;;5075391;28;20052;-73
2023/01/09 06:09:34;;;;;;;136.65;61.40;;;6.60;99.90;;;;;;5076551;28;20040;-74
2023/01/09 06:12:00;;;;;;;138.95;63.65;;;6.60;99.90;;;;;;5076428;28;20399;-74
2023/01/09 06:14:26;;;;;;;134.90;60.72;;;6.70;99.90;;;;;;5075338;28;20032;-73
2023/01/09 06:16:52;;;;;;;135.82;61.60;;;6.70;99.90;;;;;;5076534;28;20025;-73
2023/01/09 06:19:18;;;;;;;160.63;70.07;;;6.80;99.90;;;;;;5065043;28;20458;-74
2023/01/09 06:21:44;;;;;;;144.43;58.67;;;6.80;99.90;;;;;;5056457;28;20025;-73
2023/01/09 06:24:10;;;;;;;149.75;60.92;;;6.90;99.90;;;;;;5056314;28;20090;-74
2023/01/09 06:26:36;;;;;;;136.25;55.38;;;7.00;99.90;;;;;;5056859;28;20033;-73
2023/01/09 06:29:02;;;;;;;237.85;84.35;;;7.10;99.90;;;;;;5057025;28;20470;-73
2023/01/09 06:31:27;;;;;;;198.13;82.90;;;7.20;99.90;;;;;;5069440;28;20047;-73
2023/01/09 06:33:53;;;;;;;184.32;73.75;;;7.20;99.90;;;;;;5075994;28;20032;-73
2023/01/09 06:36:19;;;;;;;159.45;72.30;;;7.30;99.90;;;;;;5076372;28;20028;-73
2023/01/09 06:38:45;;;;;;;116.55;53.15;;;7.40;99.90;;;;;;5076237;28;20120;-73
2023/01/09 06:41:11;;;;;;;139.57;58.72;;;7.50;99.90;;;;;;5075945;28;20028;-73
2023/01/09 06:43:37;;;;;;;144.98;59.70;;;7.60;99.90;;;;;;5071607;28;20482;-74
2023/01/09 06:46:07;;;;;;;143.82;62.80;;;7.70;99.90;;;;;;5076064;28;20549;-73
2023/01/09 06:48:33;;;;;;;155.07;70.05;;;7.70;99.90;;;;;;5073614;28;20035;-73
2023/01/09 06:50:59;;;;;;;155.43;60.63;;;7.70;99.90;;;;;;5056238;28;20017;-74
2023/01/09 06:53:26;;;;;;;146.48;62.63;;;7.80;99.90;;;;;;5054132;28;20529;-74
2023/01/09 06:55:52;;;;;;;177.27;74.00;;;7.80;99.90;;;;;;5054047;28;20036;-73
2023/01/09 06:58:19;;;;;;;169.50;73.43;;;7.80;99.90;;;;;;5056851;28;20036;-74
2023/01/09 07:00:48;;;;;;;156.70;69.03;;;7.80;99.90;;;;;;5074236;28;20021;-75
2023/01/09 07:03:18;;;;;;;147.57;62.80;;;7.90;99.90;;;;;;5074032;28;20040;-75
2023/01/09 07:05:45;;;;;;;183.35;69.55;;;8.00;99.90;;;;;;5075278;28;20032;-69
2023/01/09 07:08:11;;;;;;;161.05;68.35;;;8.00;99.90;;;;;;5074688;28;20048;-69
2023/01/09 07:10:37;;;;;;;146.15;64.28;;;7.90;99.90;;;;;;5075146;28;20078;-69
2023/01/09 07:13:03;;;;;;;158.55;70.22;;;8.00;99.90;;;;;;5074306;28;20032;-70
2023/01/09 07:15:29;;;;;;;184.93;79.35;;;8.10;99.90;;;;;;5073834;28;20100;-70
2023/01/09 07:17:55;;;;;;;166.15;74.78;;;8.10;99.90;;;;;;5074972;28;20028;-70
2023/01/09 07:20:23;;;;;;;194.90;82.47;;;8.10;99.90;;;;;;5054017;28;20025;-69
2023/01/09 07:22:49;;;;;;;185.02;79.93;;;8.10;99.90;;;;;;5054658;28;20032;-70
2023/01/09 07:25:15;;;;;;;186.32;80.00;;;8.00;99.90;;;;;;5055088;28;20029;-70
2023/01/09 07:27:42;;;;;;;177.23;81.63;;;8.10;99.90;;;;;;5069145;28;20374;-69
2023/01/09 07:30:08;;;;;;;193.80;83.00;;;8.10;99.90;;;;;;5055196;28;20288;-70
2023/01/09 07:32:34;;;;;;;173.23;79.05;;;8.20;99.90;;;;;;5064362;28;20453;-69
2023/01/09 07:35:00;;;;;;;193.73;87.22;;;8.30;99.90;;;;;;5054924;28;20056;-70
2023/01/09 07:37:26;;;;;;;193.50;86.35;;;8.30;99.90;;;;;;5041415;28;20123;-69
2023/01/09 07:39:52;;;;;;;211.45;88.15;;;8.20;99.90;;;;;;5038562;28;20036;-69
2023/01/09 07:42:18;;;;;;;203.15;88.43;;;8.30;99.90;;;;;;5053722;28;20033;-69
2023/01/09 07:44:44;;;;;;;221.65;99.15;;;8.30;99.90;;;;;;5054215;28;20037;-69
2023/01/09 07:47:10;;;;;;;252.30;111.07;;;8.40;99.90;;;;;;5054199;28;20029;-69
2023/01/09 07:49:36;;;;;;;259.38;114.32;;;8.40;99.90;;;;;;5054138;28;20068;-69
2023/01/09 07:52:02;;;;;;;270.25;120.63;;;8.50;99.90;;;;;;5054644;28;20104;-69
2023/01/09 07:54:28;;;;;;;235.63;109.40;;;8.60;99.90;;;;;;5054380;28;20036;-69
2023/01/09 07:56:54;;;;;;;246.65;113.22;;;8.70;99.90;;;;;;5055800;28;20466;-69
2023/01/09 07:59:20;;;;;;;263.60;117.72;;;8.80;99.90;;;;;;5052556;28;20032;-70
2023/01/09 08:01:46;;;;;;;257.85;117.32;;;8.90;99.90;;;;;;5052967;28;20375;-70
2023/01/09 08:04:12;;;;;;;253.82;118.60;;;8.80;99.90;;;;;;5046211;28;20029;-69
2023/01/09 08:06:38;;;;;;;226.43;101.63;;;8.90;99.90;;;;;;5052097;28;20069;-69
2023/01/09 08:09:04;;;;;;;238.00;108.38;;;8.80;99.90;;;;;;5053554;28;20064;-70
2023/01/09 08:11:31;;;;;;;243.23;108.90;;;8.90;99.90;;;;;;5054117;28;20017;-70
2023/01/09 08:13:57;;;;;;;241.68;108.28;;;8.90;99.90;;;;;;5068615;28;20163;-70
2023/01/09 08:16:23;;;;;;;235.73;110.38;;;9.00;99.90;;;;;;5072742;28;20031;-69
2023/01/09 08:18:49;;;;;;;239.20;106.70;;;9.00;99.90;;;;;;5067514;28;20397;-70
2023/01/09 08:21:18;;;;;;;208.60;95.80;;;9.10;99.90;;;;;;5070106;28;20040;-70
2023/01/09 08:23:44;;;;;;;209.27;101.35;;;9.10;99.90;;;;;;5054941;28;20040;-70
2023/01/09 08:26:10;;;;;;;257.95;120.97;;;9.10;99.90;;;;;;5054695;28;20037;-70
2023/01/09 08:28:36;;;;;;;252.07;120.03;;;9.10;99.90;;;;;;5051459;28;20108;-70
2023/01/09 08:31:02;;;;;;;248.00;120.43;;;9.20;99.90;;;;;;5064068;28;20099;-70
2023/01/09 08:33:28;;;;;;;236.38;111.10;;;9.20;99.90;;;;;;5073767;28;20036;-69
2023/01/09 08:35:54;;;;;;;235.75;110.35;;;9.20;99.90;;;;;;5074088;28;20382;-69
2023/01/09 08:38:23;;;;;;;251.52;119.80;;;9.10;99.90;;;;;;5060654;28;20033;-69
2023/01/09 08:40:49;;;;;;;243.63;114.63;;;9.10;99.90;;;;;;5053243;28;20029;-69
2023/01/09 08:48:46;;;;;;;251.93;114.95;;;9.20;99.90;;;;;;5053643;28;20387;-70
2023/01/09 08:51:13;;;;;;;253.82;117.47;;;9.10;99.90;;;;;;5052538;28;20029;-70
2023/01/09 08:53:43;;;;;;;250.93;120.63;;;9.20;99.90;;;;;;5054098;28;20025;-69
2023/01/09 08:56:13;;;;;;;298.60;138.15;;;9.20;99.90;;;;;;5053974;28;20033;-69
2023/01/09 08:58:39;;;;;;;302.58;141.40;;;9.30;99.90;;;;;;5052087;28;20057;-69
2023/01/09 09:01:07;;;;;;;266.15;125.40;;;9.30;99.90;;;;;;5070356;28;20166;-70
2023/01/09 09:03:32;;;;;;;286.70;138.65;;;9.30;99.90;;;;;;5064698;28;20036;-70
2023/01/09 09:05:59;;;;;;;309.15;149.85;;;9.30;99.90;;;;;;5046913;28;20035;-70
2023/01/09 09:08:25;;;;;;;270.38;134.90;;;9.30;99.90;;;;;;5050079;28;20494;-69
2023/01/09 09:10:51;;;;;;;308.33;153.98;;;9.30;99.90;;;;;;5052175;28;20094;-70
2023/01/09 09:13:17;;;;;;;332.40;158.85;;;9.30;99.90;;;;;;5048265;28;20028;-70
2023/01/09 09:15:43;;;;;;;326.63;163.25;;;9.40;99.90;;;;;;5052330;28;20029;-70
2023/01/09 09:18:09;;;;;;;359.85;173.75;;;9.40;99.90;;;;;;5051953;28;20037;-70
2023/01/09 09:20:37;;;;;;;362.35;181.57;;;9.50;99.90;;;;;;5058332;28;20035;-71
2023/01/09 09:23:07;;;;;;;338.02;168.82;;;9.30;99.90;;;;;;5052161;28;20025;-70
2023/01/09 09:25:37;;;;;;;341.23;167.40;;;9.50;99.90;;;;;;5047317;28;20034;-70
2023/01/09 09:28:03;;;;;;;371.85;181.68;;;9.60;99.90;;;;;;5051032;28;20474;-70
2023/01/09 09:30:29;;;;;;;353.08;178.02;;;9.60;99.90;;;;;;5052677;28;20056;-70
2023/01/09 09:32:55;;;;;;;346.30;172.00;;;9.70;99.90;;;;;;5052557;28;20021;-69
2023/01/09 09:35:22;;;;;;;338.48;167.70;;;9.80;99.90;;;;;;5053751;28;20098;-70
2023/01/09 09:37:57;;;;;;;372.20;187.70;;;9.90;99.90;;;;;;5053595;28;20021;-70
2023/01/09 09:40:38;;;;;;;393.45;192.48;;;9.90;99.90;;;;;;5054021;28;20060;-72
2023/01/09 09:46:17;;;;;;;414.77;203.05;;;10.00;99.90;;;;;;5056788;28;20040;-72
2023/01/09 09:48:56;;;;;;;443.02;217.23;;;10.10;99.90;;;;;;5056833;28;20108;-71
2023/01/09 09:51:31;;;;;;;461.33;225.60;;;10.10;99.90;;;;;;5059389;28;20036;-71
2023/01/09 09:54:05;;;;;;;492.02;264.70;;;10.20;99.90;;;;;;5071941;28;20032;-71
2023/01/09 09:56:39;;;;;;;464.88;235.75;;;10.30;99.90;;;;;;5056733;28;20528;-71
2023/01/09 09:59:33;;;;;;;440.85;224.75;;;10.40;99.90;;;;;;5055457;28;20029;-71
2023/01/09 10:02:23;;;;;;;390.88;204.75;;;10.40;99.90;;;;;;5069635;28;20044;-72
2023/01/09 10:04:57;;;;;;;368.73;183.68;;;10.50;99.90;;;;;;5060707;28;20044;-71
2023/01/09 10:07:31;;;;;;;331.02;161.65;;;10.60;99.90;;;;;;5065840;28;20048;-71
2023/01/09 10:10:03;;;;;;;324.38;165.65;;;10.60;99.90;;;;;;5076218;28;20067;-71
2023/01/09 10:12:49;;;;;;;350.27;173.95;;;10.60;99.90;;;;;;5058455;28;20025;-71
2023/01/09 10:15:31;;;;;;;324.00;163.48;;;10.70;99.90;;;;;;5076479;28;20066;-73
2023/01/09 10:18:15;;;;;;;310.75;157.40;;;10.60;99.90;;;;;;5075985;28;20024;-71
2023/01/09 10:20:49;;;;;;;328.27;165.40;;;10.70;99.90;;;;;;5071860;28;20044;-71
2023/01/09 10:23:27;;;;;;;333.73;167.88;;;10.70;99.90;;;;;;5055645;28;20119;-71
2023/01/09 10:26:07;;;;;;;357.83;179.20;;;10.80;99.90;;;;;;5071820;28;20038;-74
2023/01/09 10:29:04;;;;;;;377.60;195.57;;;10.90;99.90;;;;;;5054752;28;20037;-70
2023/01/09 10:31:48;;;;;;;380.58;186.77;;;11.00;99.90;;;;;;5069756;28;20032;-71
2023/01/09 10:34:40;;;;;;;362.70;181.15;;;11.00;99.90;;;;;;5076397;28;20024;-71
2023/01/09 10:37:11;;;;;;;332.30;163.18;;;11.00;99.90;;;;;;5068798;28;20390;-70
2023/01/09 10:39:44;;;;;;;333.35;157.75;;;10.90;99.90;;;;;;5054953;28;20033;-70
2023/01/09 10:42:48;;;;;;;316.52;159.00;;;11.00;99.90;;;;;;5055945;28;20036;-70
2023/01/09 10:45:40;;;;;;;324.40;158.85;;;10.90;99.90;;;;;;5055879;28;20033;-70
2023/01/09 10:48:25;;;;;;;338.08;170.23;;;11.00;99.90;;;;;;5058568;28;20021;-70
2023/01/09 10:50:53;;;;;;;335.45;171.25;;;11.00;99.90;;;;;;5075354;28;20028;-70
2023/01/09 10:53:22;;;;;;;385.00;205.40;;;11.10;99.90;;;;;;5075234;28;20064;-70
2023/01/09 10:55:56;;;;;;;357.23;182.90;;;11.20;99.90;;;;;;5074628;28;20025;-70
2023/01/09 10:58:22;;;;;;;316.75;160.80;;;11.20;99.90;;;;;;5074441;28;20032;-70
2023/01/09 11:00:49;;;;;;;323.75;158.30;;;11.20;99.90;;;;;;5057779;28;20032;-70
2023/01/09 11:03:20;;;;;;;297.60;150.05;;;11.40;99.90;;;;;;5073879;28;20488;-70
2023/01/09 11:05:58;;;;;;;287.42;145.00;;;11.30;99.90;;;;;;5070762;28;20063;-70
2023/01/09 11:08:39;;;;;;;298.50;158.63;;;11.40;99.90;;;;;;5074530;28;20090;-70
2023/01/09 11:11:04;;;;;;;;;;;11.50;99.90;;;;;;5075182;28;20042;-70
2023/01/09 11:13:37;;;;;;;297.63;151.60;;;11.60;99.90;;;;;;5075346;28;20402;-70
2023/01/09 11:16:19;;;;;;;259.60;131.85;;;11.70;99.90;;;;;;5062682;28;20379;-70
2023/01/09 11:18:59;;;;;;;269.40;130.93;;;11.80;99.90;;;;;;5054959;28;20451;-70
2023/01/09 11:21:36;;;;;;;252.80;120.40;;;11.90;99.90;;;;;;5053825;28;20044;-70
2023/01/09 11:24:18;;;;;;;253.20;125.07;;;12.10;99.90;;;;;;5037159;28;20025;-70
2023/01/09 11:26:45;;;;;;;268.60;113.78;;;12.20;99.90;;;;;;5054817;28;20036;-70
2023/01/09 11:29:13;;;;;;;233.80;118.30;;;12.40;99.90;;;;;;5053215;28;20739;-70
2023/01/09 11:31:40;;;;;;;213.45;110.88;;;12.60;99.90;;;;;;5066357;28;20111;-70
2023/01/09 11:34:16;;;;;;;196.60;97.75;;;12.70;99.90;;;;;;5075044;28;20435;-70
2023/01/09 11:36:42;;;;;;;132.98;69.28;;;12.90;99.90;;;;;;5056993;28;20033;-70
2023/01/09 11:39:24;;;;;;;112.20;56.90;;;13.10;99.90;;;;;;5068620;28;20037;-70
2023/01/09 11:42:49;;;;;;;127.57;51.50;;;13.20;98.90;;;;;;5053559;28;20033;-70
2023/01/09 11:45:18;;;;;;;185.20;79.03;;;13.50;98.30;;;;;;5050331;28;20072;-70
2023/01/09 11:47:45;;;;;;;171.27;75.43;;;13.60;97.80;;;;;;5051627;28;20078;-70
2023/01/09 11:50:28;;;;;;;189.77;88.32;;;13.80;97.70;;;;;;5050117;28;20496;-70
2023/01/09 11:53:15;;;;;;;253.98;92.93;;;13.90;97.30;;;;;;5050886;28;20482;-70
2023/01/09 11:55:43;;;;;;;216.90;95.38;;;14.10;96.90;;;;;;5033817;28;20028;-71
2023/01/09 11:58:17;;;;;;;259.45;99.82;;;14.10;96.10;;;;;;5035703;28;20044;-71
2023/01/09 12:00:49;;;;;;;265.33;103.03;;;14.20;95.90;;;;;;5048789;28;20025;-71
2023/01/09 12:03:54;;;;;;;258.42;103.25;;;14.30;96.00;;;;;;5052825;28;20115;-71
2023/01/09 12:06:37;;;;;;;235.93;104.15;;;14.20;94.60;;;;;;5066826;28;20025;-70
2023/01/09 12:09:06;;;;;;;193.10;88.53;;;14.30;95.80;;;;;;5034635;28;20071;-71
2023/01/09 12:11:45;;;;;;;217.73;80.57;;;14.30;95.20;;;;;;5049055;28;20367;-70
2023/01/09 12:14:20;;;;;;;176.10;76.95;;;14.20;93.00;;;;;;5033960;28;20493;-71
2023/01/09 12:16:57;;;;;;;182.18;76.15;;;14.30;92.20;;;;;;5046283;28;20533;-71
2023/01/09 12:19:54;;;;;;;188.48;78.60;;;14.30;92.80;;;;;;5035273;28;20032;-71
2023/01/09 12:22:34;;;;;;;171.20;68.30;;;14.30;92.70;;;;;;5045713;28;20494;-70
2023/01/09 12:25:25;;;;;;;114.70;46.72;;;14.30;93.00;;;;;;5052547;28;20024;-71
2023/01/09 12:28:15;;;;;;;49.55;23.98;;;14.30;91.70;;;;;;5028009;28;20294;-71
2023/01/09 12:31:03;;;;;;;77.50;37.00;;;14.30;90.60;;;;;;5051377;28;20439;-70
2023/01/09 12:34:02;;;;;;;169.45;55.40;;;14.20;90.10;;;;;;5068304;28;20476;-72
2023/01/09 12:36:42;;;;;;;113.72;40.65;;;14.20;91.20;;;;;;5060002;28;20047;-72
2023/01/09 12:39:30;;;;;;;133.73;47.55;;;14.20;90.10;;;;;;5053868;28;20382;-74
2023/01/09 12:42:14;;;;;;;148.75;52.17;;;14.20;90.80;;;;;;5053768;28;20453;-75
2023/01/09 12:45:03;;;;;;;116.93;43.75;;;14.10;92.60;;;;;;5033680;28;20021;-75
2023/01/09 12:47:46;;;;;;;94.50;41.42;;;14.10;92.10;;;;;;5053667;28;20056;-75
2023/01/09 12:50:27;;;;;;;108.07;42.22;;;14.00;92.30;;;;;;5048655;28;20044;-75
2023/01/09 12:53:20;;;;;;;107.45;40.65;;;14.00;93.10;;;;;;5046483;28;20047;-75
2023/01/09 12:55:54;;;;;;;123.93;45.22;;;14.00;92.80;;;;;;5052637;28;20091;-75